PROFILE

 METAR AND TAF INFORMATION
ADDS - METARS form results

(0434 UTC 26 January 2021)
http://aviationweather.gov/metar/data/
 
TAF FNGI 252300Z 2600/2612 30006KT 4000 RADZ SCT010 FEW015CB OVC022 TEMPO 2604/2606 5000 DZ BECMG 2609/2611 9000 OVC012 

 AIRPORT MAP

 RUNWAY INFORMATION
Runway 13 Runway length 10640 ft Runway width 95 ft
Runway elevation 0 ft Runway displaced threshold 0 ft Runway heading 115
Runway 31 Runway length 10640 ft Runway width 95 ft
Runway elevation 0 ft Runway displaced threshold 0 ft Runway heading 295

 AIRPORT FREQUENCIES
Type AFIS Name AFIS Frequency 118.7 MHZ

 AIRPORT NEAR NAVIGATION AIDS
Type NDB Name Ngiva Frequency 327 KHZ